createdAt,value
2024-02-14T00:00:38.393Z,99638.75
2024-02-14T00:03:30.272Z,99641.52
2024-02-14T00:06:02.268Z,99641.52
2024-02-14T00:08:34.228Z,99645.10
2024-02-14T00:11:06.308Z,99646.11
2024-02-14T00:13:36.659Z,99644.70
2024-02-14T00:16:10.808Z,99655.23
2024-02-14T00:18:42.831Z,99655.98
2024-02-14T00:21:14.986Z,99657.16
2024-02-14T00:23:45.828Z,99663.61
2024-02-14T00:26:16.650Z,99666.20
2024-02-14T00:28:46.994Z,99666.86
2024-02-14T00:31:18.923Z,99671.63
2024-02-14T00:33:49.431Z,99676.50
2024-02-14T00:36:21.616Z,99677.32
2024-02-14T00:38:52.716Z,99677.63
2024-02-14T00:41:24.959Z,99678.90
2024-02-14T00:43:55.299Z,99683.16
2024-02-14T00:46:27.299Z,99686.95
2024-02-14T00:49:00.894Z,99688.70
2024-02-14T00:51:33.009Z,99690.05
2024-02-14T00:54:05.056Z,99692.67
2024-02-14T00:56:37.320Z,99687.94
2024-02-14T00:59:09.822Z,99686.73
2024-02-14T01:01:42.350Z,99683.34
2024-02-14T01:04:14.341Z,99684.88
2024-02-14T01:06:46.391Z,99680.99
2024-02-14T01:09:18.507Z,99683.02
2024-02-14T01:11:50.576Z,99677.73
2024-02-14T01:14:23.655Z,99678.23
2024-02-14T01:16:56.059Z,99669.39
2024-02-14T01:19:29.876Z,99669.26
2024-02-14T01:22:01.848Z,99670.32
2024-02-14T01:24:33.642Z,99665.67
2024-02-14T01:27:06.840Z,99662.77
2024-02-14T01:29:38.800Z,99661.60
2024-02-14T01:32:10.909Z,99659.10
2024-02-14T01:34:43.783Z,99661.73
2024-02-14T01:37:15.730Z,99664.18
2024-02-14T01:39:45.978Z,99664.30
2024-02-14T01:42:17.895Z,99665.04
2024-02-14T01:44:48.181Z,99662.58
2024-02-14T01:47:21.109Z,99659.40
2024-02-14T01:49:53.144Z,99662.52
2024-02-14T01:52:25.086Z,99662.23
2024-02-14T01:54:57.328Z,99656.04
2024-02-14T01:57:30.011Z,99661.39
2024-02-14T02:00:05.902Z,99660.58
2024-02-14T02:02:39.170Z,99661.52
2024-02-14T02:05:11.648Z,99657.83
2024-02-14T02:07:44.972Z,99660.15
2024-02-14T02:10:17.623Z,99659.19
2024-02-14T02:12:49.944Z,99660.05
2024-02-14T02:15:21.870Z,99661.35
2024-02-14T02:17:54.738Z,99665.88
2024-02-14T02:20:29.498Z,99665.64
2024-02-14T02:23:01.836Z,99666.39
2024-02-14T02:25:33.695Z,99666.71
2024-02-14T02:28:06.106Z,99668.52
2024-02-14T02:30:38.579Z,99667.69
2024-02-14T02:33:11.029Z,99668.84
2024-02-14T02:35:46.468Z,99672.73
2024-02-14T02:38:18.839Z,99671.84
2024-02-14T02:40:50.836Z,99672.25
2024-02-14T02:43:23.185Z,99670.12
2024-02-14T02:45:55.269Z,99672.24
2024-02-14T02:48:27.332Z,99676.69
2024-02-14T02:51:00.303Z,99676.14
2024-02-14T02:53:32.481Z,99679.00
2024-02-14T02:56:04.918Z,99683.30
2024-02-14T02:58:37.399Z,99683.05
2024-02-14T03:01:13.228Z,99682.44
2024-02-14T03:03:45.481Z,99686.61
2024-02-14T03:06:17.553Z,99686.81
2024-02-14T03:08:50.335Z,99689.65
2024-02-14T03:11:22.329Z,99689.31
2024-02-14T03:13:54.389Z,99689.77
2024-02-14T03:16:26.064Z,99685.52
2024-02-14T03:19:00.130Z,99688.91
2024-02-14T03:21:33.614Z,99688.02
2024-02-14T03:24:06.442Z,99690.64
2024-02-14T03:26:39.510Z,99689.82
2024-02-14T03:29:11.548Z,99688.53
2024-02-14T03:31:45.361Z,99689.69
2024-02-14T03:34:17.412Z,99693.88
2024-02-14T03:36:49.396Z,99691.24
2024-02-14T03:39:21.472Z,99692.06
2024-02-14T03:41:54.323Z,99693.88
2024-02-14T03:44:26.252Z,99695.60
2024-02-14T03:46:58.167Z,99697.31
2024-02-14T03:49:28.496Z,99698.17
2024-02-14T03:52:02.321Z,99704.32
2024-02-14T03:54:34.210Z,99703.89
2024-02-14T03:57:08.163Z,99703.34
2024-02-14T03:59:43.313Z,99702.98
2024-02-14T04:02:15.692Z,99699.23
2024-02-14T04:04:47.896Z,99703.19
2024-02-14T04:07:19.801Z,99709.71
2024-02-14T04:09:51.839Z,99713.81
2024-02-14T04:12:22.132Z,99713.67
2024-02-14T04:14:54.059Z,99717.75
2024-02-14T04:17:25.335Z,99713.20
2024-02-14T04:19:57.307Z,99716.40
2024-02-14T04:22:29.170Z,99714.84
2024-02-14T04:25:01.104Z,99717.88
2024-02-14T04:27:31.442Z,99719.02
2024-02-14T04:30:05.005Z,99725.33
2024-02-14T04:32:37.114Z,99724.30
2024-02-14T04:35:10.028Z,99727.34
2024-02-14T04:37:44.526Z,99725.54
2024-02-14T04:40:17.507Z,99725.69
2024-02-14T04:42:50.365Z,99723.43
2024-02-14T04:45:22.333Z,99725.77
2024-02-14T04:47:54.420Z,99720.83
2024-02-14T04:50:25.120Z,99722.91
2024-02-14T04:52:56.956Z,99729.75
2024-02-14T04:55:30.491Z,99727.52
2024-02-14T04:58:02.868Z,99728.86
2024-02-14T05:00:35.358Z,99730.48
2024-02-14T05:03:07.640Z,99731.04
2024-02-14T05:05:40.287Z,99731.61
2024-02-14T05:08:12.403Z,99733.86
2024-02-14T05:10:44.342Z,99734.03
2024-02-14T05:13:17.052Z,99727.84
2024-02-14T05:15:48.983Z,99725.95
2024-02-14T05:18:21.096Z,99721.19
2024-02-14T05:20:53.324Z,99726.05
2024-02-14T05:23:25.325Z,99729.21
2024-02-14T05:25:57.256Z,99729.85
2024-02-14T05:28:29.713Z,99730.88
2024-02-14T05:31:04.459Z,99738.06
2024-02-14T05:33:37.148Z,99739.45
2024-02-14T05:36:10.373Z,99740.09
2024-02-14T05:38:42.383Z,99738.38
2024-02-14T05:41:14.289Z,99740.58
2024-02-14T05:43:46.123Z,99740.81
2024-02-14T05:46:18.032Z,99739.48
2024-02-14T05:48:50.293Z,99736.64
2024-02-14T05:51:22.461Z,99738.05
2024-02-14T05:53:54.507Z,99748.52
2024-02-14T05:56:24.951Z,99751.20
2024-02-14T05:58:56.806Z,99752.03
2024-02-14T06:01:30.131Z,99753.40
2024-02-14T06:04:02.337Z,99755.30
2024-02-14T06:06:34.717Z,99755.08
2024-02-14T06:09:10.992Z,99756.38
2024-02-14T06:11:43.826Z,99757.18
2024-02-14T06:14:15.704Z,99760.05
2024-02-14T06:16:47.632Z,99760.52
2024-02-14T06:19:19.607Z,99759.75
2024-02-14T06:21:50.090Z,99758.21
2024-02-14T06:24:22.204Z,99759.64
2024-02-14T06:26:54.146Z,99763.88
2024-02-14T06:29:26.049Z,99765.45
2024-02-14T06:31:58.192Z,99763.59
2024-02-14T06:34:30.331Z,99761.08
2024-02-14T06:37:02.533Z,99754.59
2024-02-14T06:39:34.409Z,99757.22
2024-02-14T06:42:07.136Z,99753.88
2024-02-14T06:44:39.066Z,99753.67
2024-02-14T06:47:11.124Z,99763.06
2024-02-14T06:49:41.481Z,99764.19
2024-02-14T06:52:13.633Z,99764.97
2024-02-14T06:54:43.900Z,99766.19
2024-02-14T06:57:15.790Z,99762.55
2024-02-14T06:59:47.665Z,99764.76
2024-02-14T07:02:19.650Z,99763.95
2024-02-14T07:04:52.928Z,99760.88
2024-02-14T07:07:25.189Z,99762.19
2024-02-14T07:09:57.026Z,99764.89
2024-02-14T07:12:31.633Z,99768.15
2024-02-14T07:15:05.650Z,99764.37
2024-02-14T07:17:37.808Z,99766.97
2024-02-14T07:20:11.535Z,99763.69
2024-02-14T07:22:43.607Z,99764.80
2024-02-14T07:25:15.988Z,99764.65
2024-02-14T07:27:50.877Z,99763.45
2024-02-14T07:30:22.848Z,99759.97
2024-02-14T07:32:55.572Z,99760.39
2024-02-14T07:35:27.608Z,99761.86
2024-02-14T07:37:59.794Z,99757.99
2024-02-14T07:40:32.314Z,99756.20
2024-02-14T07:43:04.591Z,99755.45
2024-02-14T07:45:36.607Z,99759.77
2024-02-14T07:48:09.882Z,99754.08
2024-02-14T07:50:41.987Z,99759.91
2024-02-14T07:53:13.154Z,99757.83
2024-02-14T07:55:44.994Z,99760.09
2024-02-14T07:58:16.860Z,99763.02
2024-02-14T08:00:48.756Z,99763.09
2024-02-14T08:03:19.111Z,99766.52
2024-02-14T08:05:51.045Z,99767.16
2024-02-14T08:08:26.389Z,99772.43
2024-02-14T08:10:58.246Z,99774.20
2024-02-14T08:13:30.244Z,99777.27
2024-02-14T08:16:02.509Z,99773.09
2024-02-14T08:18:32.965Z,99771.20
2024-02-14T08:21:05.722Z,99772.80
2024-02-14T08:23:40.120Z,99772.38
2024-02-14T08:26:12.632Z,99768.15
2024-02-14T08:28:44.530Z,99766.65
2024-02-14T08:31:15.247Z,99766.85
2024-02-14T08:33:47.593Z,99764.55
2024-02-14T08:36:20.976Z,99769.03
2024-02-14T08:38:53.360Z,99770.21
2024-02-14T08:41:24.580Z,99770.42
2024-02-14T08:43:56.518Z,99769.62
2024-02-14T08:46:26.862Z,99770.33
2024-02-14T08:48:58.976Z,99770.42
2024-02-14T08:51:31.154Z,99768.77
2024-02-14T08:54:01.638Z,99769.64
2024-02-14T08:56:34.854Z,99769.55
2024-02-14T08:59:08.213Z,99770.48
2024-02-14T09:01:40.090Z,99765.66
2024-02-14T09:04:10.542Z,99768.24
2024-02-14T09:06:42.464Z,99766.27
2024-02-14T09:09:16.971Z,99766.65
2024-02-14T09:11:48.938Z,99765.50
2024-02-14T09:14:19.271Z,99765.57
2024-02-14T09:16:51.161Z,99761.95
2024-02-14T09:19:22.909Z,99760.13
2024-02-14T09:21:55.300Z,99762.48
2024-02-14T09:24:27.248Z,99763.04
2024-02-14T09:26:59.219Z,99757.41
2024-02-14T09:29:31.629Z,99760.40
2024-02-14T09:32:04.778Z,99764.17
2024-02-14T09:34:37.525Z,99763.32
2024-02-14T09:37:10.544Z,99759.97
2024-02-14T09:39:44.530Z,99766.48
2024-02-14T09:42:19.301Z,99767.11
2024-02-14T09:44:55.287Z,99764.99
2024-02-14T09:47:28.444Z,99762.17
2024-02-14T09:50:01.873Z,99763.32
2024-02-14T09:52:35.848Z,99765.84
2024-02-14T09:55:11.927Z,99769.42
2024-02-14T09:57:46.029Z,99775.67
2024-02-14T10:00:19.388Z,99782.85
2024-02-14T10:02:51.917Z,99777.71
2024-02-14T10:05:24.092Z,99775.37
2024-02-14T10:07:58.661Z,99773.73
2024-02-14T10:10:31.269Z,99774.00
2024-02-14T10:13:05.832Z,99769.58
2024-02-14T10:15:37.854Z,99767.42
2024-02-14T10:18:11.384Z,99765.63
2024-02-14T10:20:46.336Z,99768.25
2024-02-14T10:23:18.205Z,99762.11
2024-02-14T10:25:51.489Z,99763.61
2024-02-14T10:28:30.143Z,99756.40
2024-02-14T10:31:12.324Z,99756.61
2024-02-14T10:33:45.579Z,99753.79
2024-02-14T10:36:20.232Z,99750.80
2024-02-14T10:38:54.989Z,99750.23
2024-02-14T10:41:32.942Z,99754.20
2024-02-14T10:44:06.542Z,99750.88
2024-02-14T10:46:42.445Z,99741.29
2024-02-14T10:49:17.601Z,99739.27
2024-02-14T10:51:54.784Z,99739.50
2024-02-14T10:54:28.329Z,99736.57
2024-02-14T10:57:06.111Z,99734.54
2024-02-14T10:59:41.764Z,99740.60
2024-02-14T11:02:14.876Z,99735.42
2024-02-14T11:04:48.044Z,99734.51
2024-02-14T11:07:24.206Z,99728.23
2024-02-14T11:10:09.063Z,99726.48
2024-02-14T11:12:42.868Z,99724.30
2024-02-14T11:15:18.865Z,99726.38
2024-02-14T11:17:53.594Z,99726.23
2024-02-14T11:20:37.030Z,99720.27
2024-02-14T11:23:12.886Z,99713.67
2024-02-14T11:25:48.817Z,99705.52
2024-02-14T11:28:22.070Z,99702.97
2024-02-14T11:30:56.201Z,99704.16
2024-02-14T11:33:28.344Z,99701.59
2024-02-14T11:36:00.651Z,99700.83
2024-02-14T11:38:32.923Z,99701.76
2024-02-14T11:41:06.951Z,99695.94
2024-02-14T11:43:40.994Z,99694.13
2024-02-14T11:46:13.470Z,99693.16
2024-02-14T11:48:48.605Z,99692.13
2024-02-14T11:51:21.825Z,99691.10
2024-02-14T11:53:53.995Z,99682.05
2024-02-14T11:56:27.325Z,99682.95
2024-02-14T11:58:59.980Z,99675.38
2024-02-14T12:01:33.063Z,99676.03
2024-02-14T12:04:08.322Z,99674.86
2024-02-14T12:06:43.064Z,99669.47
2024-02-14T12:09:15.602Z,99673.84
2024-02-14T12:11:48.758Z,99672.77
2024-02-14T12:14:26.183Z,99675.24
2024-02-14T12:17:04.176Z,99668.05
2024-02-14T12:19:39.546Z,99663.60
2024-02-14T12:22:19.383Z,99662.19
2024-02-14T12:24:53.716Z,99661.20
2024-02-14T12:27:25.607Z,99661.35
2024-02-14T12:29:57.572Z,99657.21
2024-02-14T12:32:29.548Z,99656.30
2024-02-14T12:35:02.306Z,99657.33
2024-02-14T12:37:34.291Z,99654.30
2024-02-14T12:40:08.139Z,99651.74
2024-02-14T12:42:40.067Z,99653.24
2024-02-14T12:45:14.658Z,99647.95
2024-02-14T12:47:48.098Z,99650.04
2024-02-14T12:50:21.830Z,99645.11
2024-02-14T12:52:53.726Z,99648.77
2024-02-14T12:55:26.768Z,99643.95
2024-02-14T12:57:59.395Z,99645.70
2024-02-14T13:00:33.038Z,99642.30
2024-02-14T13:03:05.855Z,99634.40
2024-02-14T13:05:38.970Z,99631.98
2024-02-14T13:08:12.580Z,99633.64
2024-02-14T13:10:44.761Z,99631.10
2024-02-14T13:13:17.059Z,99630.87
2024-02-14T13:15:49.017Z,99635.04
2024-02-14T13:18:21.451Z,99634.16
2024-02-14T13:20:58.891Z,99634.86
2024-02-14T13:23:31.085Z,99635.76
2024-02-14T13:26:05.315Z,99630.75
2024-02-14T13:28:37.715Z,99631.64
2024-02-14T13:31:10.521Z,99630.14
2024-02-14T13:33:42.567Z,99625.37
2024-02-14T13:36:18.340Z,99619.38
2024-02-14T13:38:50.582Z,99621.68
2024-02-14T13:41:23.042Z,99621.21
2024-02-14T13:43:54.930Z,99619.84
2024-02-14T13:46:27.916Z,99615.30
2024-02-14T13:48:59.843Z,99616.55
2024-02-14T13:51:31.988Z,99617.70
2024-02-14T13:54:03.870Z,99611.64
2024-02-14T13:56:35.843Z,99612.62
2024-02-14T13:59:07.760Z,99614.44
2024-02-14T14:01:40.309Z,99614.57
2024-02-14T14:04:12.965Z,99610.41
2024-02-14T14:06:45.067Z,99614.48
2024-02-14T14:09:17.215Z,99608.98
2024-02-14T14:11:51.420Z,99611.80
2024-02-14T14:14:23.308Z,99612.55
2024-02-14T14:16:55.318Z,99609.27
2024-02-14T14:19:27.596Z,99604.44
2024-02-14T14:22:00.106Z,99598.52
2024-02-14T14:24:32.985Z,99604.10
2024-02-14T14:27:05.111Z,99607.51
2024-02-14T14:29:37.015Z,99607.33
2024-02-14T14:32:10.521Z,99602.75
2024-02-14T14:34:42.502Z,99606.55
2024-02-14T14:37:14.475Z,99607.40
2024-02-14T14:39:46.338Z,99616.65
2024-02-14T14:42:19.531Z,99608.00
2024-02-14T14:44:52.613Z,99609.65
2024-02-14T14:47:24.568Z,99608.30
2024-02-14T14:49:56.541Z,99609.14
2024-02-14T14:52:28.610Z,99604.80
2024-02-14T14:55:01.031Z,99598.30
2024-02-14T14:57:33.101Z,99598.27
2024-02-14T15:00:05.995Z,99593.84
2024-02-14T15:02:38.230Z,99589.68
2024-02-14T15:05:11.936Z,99584.52
2024-02-14T15:07:44.169Z,99584.10
2024-02-14T15:10:16.184Z,99582.71
2024-02-14T15:12:48.082Z,99586.55
2024-02-14T15:15:21.161Z,99582.89
2024-02-14T15:17:53.368Z,99581.95
2024-02-14T15:20:25.311Z,99586.80
2024-02-14T15:22:57.262Z,99582.95
2024-02-14T15:25:29.644Z,99585.41
2024-02-14T15:28:01.610Z,99586.20
2024-02-14T15:30:51.542Z,99579.58
2024-02-14T15:33:24.761Z,99580.92
2024-02-14T15:35:58.989Z,99577.52
2024-02-14T15:38:31.229Z,99577.00
2024-02-14T15:41:04.531Z,99577.11
2024-02-14T15:43:36.902Z,99578.58
2024-02-14T15:46:08.996Z,99578.50
2024-02-14T15:48:42.527Z,99582.65
2024-02-14T15:51:18.937Z,99583.23
2024-02-14T15:53:50.996Z,99581.77
2024-02-14T15:56:22.895Z,99577.61
2024-02-14T15:58:54.819Z,99579.23
2024-02-14T16:01:26.682Z,99580.08
2024-02-14T16:03:58.672Z,99579.63
2024-02-14T16:06:30.680Z,99583.31
2024-02-14T16:09:02.821Z,99582.31
2024-02-14T16:11:35.355Z,99587.14
2024-02-14T16:14:07.317Z,99587.23
2024-02-14T16:16:39.244Z,99589.73
2024-02-14T16:19:11.776Z,99588.27
2024-02-14T16:21:43.750Z,99593.71
2024-02-14T16:24:16.656Z,99596.27
2024-02-14T16:26:48.613Z,99601.31
2024-02-14T16:29:20.523Z,99607.12
2024-02-14T16:31:52.423Z,99611.02
2024-02-14T16:34:24.399Z,99611.45
2024-02-14T16:36:56.952Z,99613.47
2024-02-14T16:39:39.828Z,99607.77
2024-02-14T16:42:16.387Z,99616.38
2024-02-14T16:44:49.196Z,99617.48
2024-02-14T16:47:21.232Z,99621.14
2024-02-14T16:49:53.280Z,99627.56
2024-02-14T16:52:25.262Z,99629.73
2024-02-14T16:54:57.248Z,99634.54
2024-02-14T16:57:29.271Z,99631.58
2024-02-14T17:00:01.476Z,99632.18
2024-02-14T17:02:33.580Z,99634.55
2024-02-14T17:05:05.852Z,99632.30
2024-02-14T17:07:37.936Z,99636.95
2024-02-14T17:10:11.749Z,99640.90
2024-02-14T17:12:43.681Z,99647.25
2024-02-14T17:15:16.016Z,99648.27
2024-02-14T17:17:48.033Z,99652.88
2024-02-14T17:20:20.893Z,99655.48
2024-02-14T17:22:53.045Z,99650.61
2024-02-14T17:25:25.683Z,99647.64
2024-02-14T17:27:58.028Z,99644.73
2024-02-14T17:30:30.033Z,99650.64
2024-02-14T17:33:03.411Z,99651.76
2024-02-14T17:35:35.555Z,99649.85
2024-02-14T17:38:07.895Z,99650.25
2024-02-14T17:40:39.813Z,99650.02
2024-02-14T17:43:11.716Z,99644.77
2024-02-14T17:45:43.926Z,99644.52
2024-02-14T17:48:15.932Z,99645.74
2024-02-14T17:50:50.333Z,99646.29
2024-02-14T17:53:22.262Z,99648.23
2024-02-14T17:55:54.432Z,99648.70
2024-02-14T17:58:26.937Z,99650.25
2024-02-14T18:00:59.678Z,99649.29
2024-02-14T18:03:31.623Z,99650.11
2024-02-14T18:06:04.403Z,99651.86
2024-02-14T18:08:36.899Z,99649.77
2024-02-14T18:11:09.088Z,99642.88
2024-02-14T18:13:41.102Z,99637.98
2024-02-14T18:16:13.021Z,99638.61
2024-02-14T18:18:47.046Z,99635.04
2024-02-14T18:21:20.856Z,99634.91
2024-02-14T18:23:52.720Z,99635.96
2024-02-14T18:26:25.144Z,99634.00
2024-02-14T18:28:56.972Z,99626.59
2024-02-14T18:31:29.498Z,99625.77
2024-02-14T18:34:01.591Z,99627.65
2024-02-14T18:36:33.619Z,99626.20
2024-02-14T18:39:07.434Z,99628.81
2024-02-14T18:41:40.739Z,99627.77
2024-02-14T18:44:12.581Z,99630.09
2024-02-14T18:46:48.168Z,99633.50
2024-02-14T18:49:20.329Z,99630.58
2024-02-14T18:51:52.553Z,99632.64
2024-02-14T18:54:26.028Z,99631.70
2024-02-14T18:56:57.982Z,99634.06
2024-02-14T18:59:29.836Z,99634.69
2024-02-14T19:02:01.730Z,99635.09
2024-02-14T19:04:34.451Z,99636.80
2024-02-14T19:07:06.768Z,99637.87
2024-02-14T19:09:38.611Z,99637.20
2024-02-14T19:12:11.092Z,99635.02
2024-02-14T19:14:44.537Z,99630.69
2024-02-14T19:17:16.538Z,99630.83
2024-02-14T19:19:48.497Z,99625.97
2024-02-14T19:22:20.526Z,99626.96
2024-02-14T19:24:52.455Z,99624.85
2024-02-14T19:27:24.429Z,99628.23
2024-02-14T19:29:56.302Z,99624.09
2024-02-14T19:32:28.438Z,99628.46
2024-02-14T19:35:01.269Z,99627.77
2024-02-14T19:37:33.367Z,99629.45
2024-02-14T19:40:07.752Z,99629.42
2024-02-14T19:42:40.038Z,99631.11
2024-02-14T19:45:13.519Z,99626.17
2024-02-14T19:47:47.331Z,99629.13
2024-02-14T19:50:20.920Z,99626.38
2024-02-14T19:52:53.323Z,99626.81
2024-02-14T19:55:25.455Z,99625.08
2024-02-14T19:57:57.298Z,99621.55
2024-02-14T20:00:33.128Z,99621.38
2024-02-14T20:03:05.332Z,99617.47
2024-02-14T20:05:39.304Z,99613.09
2024-02-14T20:08:12.951Z,99613.54
2024-02-14T20:10:44.947Z,99609.14
2024-02-14T20:13:16.949Z,99611.23
2024-02-14T20:15:49.604Z,99607.99
2024-02-14T20:18:21.679Z,99605.69
2024-02-14T20:20:53.708Z,99603.39
2024-02-14T20:23:27.365Z,99602.51
2024-02-14T20:25:59.481Z,99603.09
2024-02-14T20:28:31.348Z,99606.06
2024-02-14T20:31:03.295Z,99605.86
2024-02-14T20:33:35.353Z,99605.30
2024-02-14T20:36:09.647Z,99604.35
2024-02-14T20:38:41.707Z,99601.53
2024-02-14T20:41:16.948Z,99601.13
2024-02-14T20:43:48.891Z,99603.33
2024-02-14T20:46:21.422Z,99599.95
2024-02-14T20:48:54.827Z,99596.84
2024-02-14T20:51:29.369Z,99597.52
2024-02-14T20:54:01.339Z,99592.57
2024-02-14T20:56:33.213Z,99589.33
2024-02-14T20:59:11.070Z,99587.65
2024-02-14T21:01:48.208Z,99587.39
2024-02-14T21:04:20.176Z,99587.95
2024-02-14T21:06:52.182Z,99586.58
2024-02-14T21:09:24.097Z,99590.99
2024-02-14T21:12:30.182Z,99590.86
2024-02-14T21:15:02.520Z,99595.36
2024-02-14T21:17:34.679Z,99595.36
2024-02-14T21:20:08.123Z,99592.02
2024-02-14T21:22:40.131Z,99589.67
2024-02-14T21:25:13.734Z,99591.42
2024-02-14T21:27:46.862Z,99592.76
2024-02-14T21:30:19.315Z,99591.03
2024-02-14T21:32:51.296Z,99589.26
2024-02-14T21:35:23.764Z,99587.71
2024-02-14T21:37:56.209Z,99586.02
2024-02-14T21:40:28.138Z,99585.42
2024-02-14T21:43:00.136Z,99586.80
2024-02-14T21:45:32.054Z,99585.72
2024-02-14T21:48:04.707Z,99587.82
2024-02-14T21:50:37.099Z,99590.05
2024-02-14T21:53:08.919Z,99593.48
2024-02-14T21:56:00.876Z,99594.34
2024-02-14T21:58:33.128Z,99594.33
2024-02-14T22:01:05.252Z,99595.39
2024-02-14T22:03:37.359Z,99594.69
2024-02-14T22:06:09.704Z,99596.59
2024-02-14T22:08:41.795Z,99600.73
2024-02-14T22:11:14.825Z,99600.90
2024-02-14T22:13:47.686Z,99599.46
2024-02-14T22:16:21.193Z,99604.09
2024-02-14T22:18:54.061Z,99606.54
2024-02-14T22:21:26.493Z,99604.35
2024-02-14T22:23:58.624Z,99603.49
2024-02-14T22:26:30.844Z,99596.38
2024-02-14T22:29:03.759Z,99599.11
2024-02-14T22:31:37.167Z,99601.88
2024-02-14T22:34:11.729Z,99602.89
2024-02-14T22:36:43.870Z,99604.63
2024-02-14T22:39:16.547Z,99604.48
2024-02-14T22:41:50.380Z,99606.60
2024-02-14T22:44:22.694Z,99608.05
2024-02-14T22:46:54.667Z,99607.73
2024-02-14T22:49:26.666Z,99607.89
2024-02-14T22:51:59.403Z,99605.59
2024-02-14T22:54:31.329Z,99606.15
2024-02-14T22:57:04.564Z,99606.93
2024-02-14T22:59:36.931Z,99607.63
2024-02-14T23:02:09.864Z,99606.66
2024-02-14T23:04:41.849Z,99604.79
2024-02-14T23:07:13.818Z,99604.70
2024-02-14T23:09:45.945Z,99602.46
2024-02-14T23:12:18.825Z,99602.92
2024-02-14T23:14:50.849Z,99600.11
2024-02-14T23:17:22.844Z,99600.05
2024-02-14T23:19:54.808Z,99595.33
2024-02-14T23:22:26.825Z,99595.23
2024-02-14T23:24:58.745Z,99593.05
2024-02-14T23:27:30.706Z,99592.30
2024-02-14T23:30:02.731Z,99593.26
2024-02-14T23:32:34.831Z,99595.03
2024-02-14T23:35:10.838Z,99596.16
2024-02-14T23:37:44.872Z,99594.77
2024-02-14T23:40:17.180Z,99599.63
2024-02-14T23:42:49.141Z,99599.35
2024-02-14T23:45:21.132Z,99599.86
2024-02-14T23:47:54.488Z,99602.80
2024-02-14T23:50:28.601Z,99606.23
2024-02-14T23:53:00.920Z,99610.05
2024-02-14T23:55:32.777Z,99610.45
2024-02-14T23:58:05.177Z,99611.10
